sensor_id;sensor_type;location;lat;lon;timestamp;pressure;altitude;pressure_sealevel;temperature;humidity
63493;BME280;49638;47.526;10.028;2022-12-18T00:00:47;92274.44;;;-6.85;88.30
63493;BME280;49638;47.526;10.028;2022-12-18T00:03:48;92288.16;;;-6.75;89.34
63493;BME280;49638;47.526;10.028;2022-12-18T00:06:48;92275.69;;;-6.80;89.84
63493;BME280;49638;47.526;10.028;2022-12-18T00:09:49;92287.59;;;-6.79;89.43
63493;BME280;49638;47.526;10.028;2022-12-18T00:12:49;92301.44;;;-6.70;89.53
63493;BME280;49638;47.526;10.028;2022-12-18T00:15:49;92296.78;;;-6.76;88.99
63493;BME280;49638;47.526;10.028;2022-12-18T00:18:51;92307.38;;;-6.70;88.98
63493;BME280;49638;47.526;10.028;2022-12-18T00:21:52;92297.81;;;-6.88;89.34
63493;BME280;49638;47.526;10.028;2022-12-18T00:24:52;92312.84;;;-6.84;86.79
63493;BME280;49638;47.526;10.028;2022-12-18T00:27:53;92308.03;;;-6.98;88.51
63493;BME280;49638;47.526;10.028;2022-12-18T00:34:03;92334.84;;;-6.91;88.79
63493;BME280;49638;47.526;10.028;2022-12-18T00:37:03;92322.38;;;-6.96;89.20
63493;BME280;49638;47.526;10.028;2022-12-18T00:40:04;92314.78;;;-6.97;89.72
63493;BME280;49638;47.526;10.028;2022-12-18T00:43:04;92325.69;;;-6.84;89.13
63493;BME280;49638;47.526;10.028;2022-12-18T00:46:05;92333.47;;;-6.74;90.49
63493;BME280;49638;47.526;10.028;2022-12-18T00:49:05;92330.59;;;-6.81;89.13
63493;BME280;49638;47.526;10.028;2022-12-18T00:52:06;92348.25;;;-6.67;90.16
63493;BME280;49638;47.526;10.028;2022-12-18T00:55:07;92341.94;;;-6.62;91.19
63493;BME280;49638;47.526;10.028;2022-12-18T00:58:09;92341.94;;;-6.62;91.08
63493;BME280;49638;47.526;10.028;2022-12-18T01:01:09;92333.53;;;-6.64;90.39
63493;BME280;49638;47.526;10.028;2022-12-18T01:04:09;92335.81;;;-6.71;90.93
63493;BME280;49638;47.526;10.028;2022-12-18T01:07:10;92354.84;;;-6.74;90.35
63493;BME280;49638;47.526;10.028;2022-12-18T01:10:11;92341.13;;;-6.84;89.18
63493;BME280;49638;47.526;10.028;2022-12-18T01:13:12;92347.78;;;-6.81;88.91
63493;BME280;49638;47.526;10.028;2022-12-18T01:16:13;92327.22;;;-7.02;87.38
63493;BME280;49638;47.526;10.028;2022-12-18T01:19:14;92349.94;;;-6.98;87.57
63493;BME280;49638;47.526;10.028;2022-12-18T01:22:15;92348.44;;;-7.00;88.28
63493;BME280;49638;47.526;10.028;2022-12-18T01:25:15;92353.56;;;-7.00;88.42
63493;BME280;49638;47.526;10.028;2022-12-18T01:28:15;92352.66;;;-6.99;89.49
63493;BME280;49638;47.526;10.028;2022-12-18T01:31:30;92359.16;;;-6.95;87.98
63493;BME280;49638;47.526;10.028;2022-12-18T01:34:31;92364.00;;;-7.02;88.27
63493;BME280;49638;47.526;10.028;2022-12-18T01:37:32;92370.19;;;-7.04;88.34
63493;BME280;49638;47.526;10.028;2022-12-18T01:40:32;92382.84;;;-7.12;87.67
63493;BME280;49638;47.526;10.028;2022-12-18T01:43:56;92375.44;;;-7.06;90.07
63493;BME280;49638;47.526;10.028;2022-12-18T01:47:00;92383.81;;;-6.93;89.76
63493;BME280;49638;47.526;10.028;2022-12-18T01:50:18;92373.53;;;-6.93;89.71
63493;BME280;49638;47.526;10.028;2022-12-18T01:53:22;92384.56;;;-6.81;90.29
63493;BME280;49638;47.526;10.028;2022-12-18T01:56:23;92363.38;;;-6.73;91.07
63493;BME280;49638;47.526;10.028;2022-12-18T01:59:24;92362.78;;;-6.65;89.74
63493;BME280;49638;47.526;10.028;2022-12-18T02:02:26;92369.97;;;-6.59;89.66
63493;BME280;49638;47.526;10.028;2022-12-18T02:05:40;92369.16;;;-6.60;88.54
63493;BME280;49638;47.526;10.028;2022-12-18T02:12:16;92365.75;;;-6.60;88.60
63493;BME280;49638;47.526;10.028;2022-12-18T02:15:42;92367.53;;;-6.61;89.07
63493;BME280;49638;47.526;10.028;2022-12-18T02:18:50;92379.00;;;-6.65;88.84
63493;BME280;49638;47.526;10.028;2022-12-18T02:22:07;92371.91;;;-6.73;89.42
63493;BME280;49638;47.526;10.028;2022-12-18T02:25:21;92385.28;;;-6.58;90.58
63493;BME280;49638;47.526;10.028;2022-12-18T02:28:28;92386.91;;;-6.57;89.83
63493;BME280;49638;47.526;10.028;2022-12-18T02:31:35;92384.56;;;-6.60;90.14
63493;BME280;49638;47.526;10.028;2022-12-18T02:34:38;92389.97;;;-6.63;90.38
63493;BME280;49638;47.526;10.028;2022-12-18T02:37:40;92393.03;;;-6.69;90.51
63493;BME280;49638;47.526;10.028;2022-12-18T02:40:42;92385.25;;;-6.79;90.95
63493;BME280;49638;47.526;10.028;2022-12-18T02:43:55;92380.06;;;-6.88;91.26
63493;BME280;49638;47.526;10.028;2022-12-18T02:46:56;92380.63;;;-6.85;90.19
63493;BME280;49638;47.526;10.028;2022-12-18T02:53:33;92383.38;;;-6.77;89.66
63493;BME280;49638;47.526;10.028;2022-12-18T02:56:46;92382.00;;;-6.81;88.33
63493;BME280;49638;47.526;10.028;2022-12-18T03:00:12;92371.00;;;-6.83;89.33
63493;BME280;49638;47.526;10.028;2022-12-18T03:03:19;92371.28;;;-6.86;88.28
63493;BME280;49638;47.526;10.028;2022-12-18T03:06:37;92372.44;;;-6.90;88.30
63493;BME280;49638;47.526;10.028;2022-12-18T03:09:42;92366.66;;;-7.03;88.01
63493;BME280;49638;47.526;10.028;2022-12-18T03:12:51;92357.34;;;-7.04;90.21
63493;BME280;49638;47.526;10.028;2022-12-18T03:15:55;92367.31;;;-6.90;90.39
63493;BME280;49638;47.526;10.028;2022-12-18T03:19:10;92365.88;;;-6.83;90.53
63493;BME280;49638;47.526;10.028;2022-12-18T03:22:12;92356.69;;;-6.85;89.76
63493;BME280;49638;47.526;10.028;2022-12-18T03:25:14;92371.56;;;-6.79;89.03
63493;BME280;49638;47.526;10.028;2022-12-18T03:28:18;92374.03;;;-6.78;89.40
63493;BME280;49638;47.526;10.028;2022-12-18T03:31:22;92371.09;;;-6.73;89.80
63493;BME280;49638;47.526;10.028;2022-12-18T03:34:28;92365.44;;;-6.67;90.40
63493;BME280;49638;47.526;10.028;2022-12-18T03:37:29;92352.16;;;-6.72;90.97
63493;BME280;49638;47.526;10.028;2022-12-18T03:40:40;92350.16;;;-6.69;90.49
63493;BME280;49638;47.526;10.028;2022-12-18T03:43:54;92372.91;;;-6.64;88.34
63493;BME280;49638;47.526;10.028;2022-12-18T03:50:17;92372.72;;;-6.72;89.87
63493;BME280;49638;47.526;10.028;2022-12-18T03:53:41;92378.31;;;-6.67;89.65
63493;BME280;49638;47.526;10.028;2022-12-18T03:56:54;92380.75;;;-6.65;89.90
63493;BME280;49638;47.526;10.028;2022-12-18T04:00:01;92385.44;;;-6.71;89.40
63493;BME280;49638;47.526;10.028;2022-12-18T04:03:04;92399.97;;;-6.81;87.05
63493;BME280;49638;47.526;10.028;2022-12-18T04:06:05;92402.13;;;-6.86;88.12
63493;BME280;49638;47.526;10.028;2022-12-18T04:09:06;92396.97;;;-6.86;90.54
63493;BME280;49638;47.526;10.028;2022-12-18T04:12:08;92394.13;;;-6.83;88.94
63493;BME280;49638;47.526;10.028;2022-12-18T04:15:09;92392.72;;;-6.76;88.96
63493;BME280;49638;47.526;10.028;2022-12-18T04:18:10;92384.63;;;-6.92;87.47
63493;BME280;49638;47.526;10.028;2022-12-18T04:21:10;92397.78;;;-6.85;87.85
63493;BME280;49638;47.526;10.028;2022-12-18T04:24:10;92396.53;;;-6.91;87.59
63493;BME280;49638;47.526;10.028;2022-12-18T04:27:11;92383.09;;;-6.95;89.60
63493;BME280;49638;47.526;10.028;2022-12-18T04:30:11;92399.75;;;-6.78;90.84
63493;BME280;49638;47.526;10.028;2022-12-18T04:33:13;92402.56;;;-6.60;91.09
63493;BME280;49638;47.526;10.028;2022-12-18T04:36:13;92402.22;;;-6.55;91.18
63493;BME280;49638;47.526;10.028;2022-12-18T04:39:14;92406.16;;;-6.51;91.01
63493;BME280;49638;47.526;10.028;2022-12-18T04:42:14;92411.31;;;-6.51;90.95
63493;BME280;49638;47.526;10.028;2022-12-18T04:45:14;92400.94;;;-6.40;92.20
63493;BME280;49638;47.526;10.028;2022-12-18T04:48:15;92403.44;;;-6.29;91.93
63493;BME280;49638;47.526;10.028;2022-12-18T04:51:15;92410.09;;;-6.26;90.54
63493;BME280;49638;47.526;10.028;2022-12-18T04:54:15;92409.97;;;-6.25;90.13
63493;BME280;49638;47.526;10.028;2022-12-18T04:57:16;92402.78;;;-6.31;89.12
63493;BME280;49638;47.526;10.028;2022-12-18T05:00:18;92414.44;;;-6.27;89.08
63493;BME280;49638;47.526;10.028;2022-12-18T05:03:18;92417.25;;;-6.30;90.41
63493;BME280;49638;47.526;10.028;2022-12-18T05:06:18;92410.09;;;-6.26;90.24
63493;BME280;49638;47.526;10.028;2022-12-18T05:09:19;92424.34;;;-6.22;89.79
63493;BME280;49638;47.526;10.028;2022-12-18T05:12:19;92411.41;;;-6.32;89.60
63493;BME280;49638;47.526;10.028;2022-12-18T05:15:19;92426.09;;;-6.44;88.33
63493;BME280;49638;47.526;10.028;2022-12-18T05:18:20;92445.97;;;-6.46;87.92
63493;BME280;49638;47.526;10.028;2022-12-18T05:21:21;92433.31;;;-6.58;89.00
63493;BME280;49638;47.526;10.028;2022-12-18T05:24:21;92427.03;;;-6.65;88.68
63493;BME280;49638;47.526;10.028;2022-12-18T05:27:22;92447.78;;;-6.57;90.03
63493;BME280;49638;47.526;10.028;2022-12-18T05:30:22;92448.53;;;-6.46;90.07
63493;BME280;49638;47.526;10.028;2022-12-18T05:33:24;92443.28;;;-6.44;89.21
63493;BME280;49638;47.526;10.028;2022-12-18T05:36:24;92415.34;;;-6.70;89.17
63493;BME280;49638;47.526;10.028;2022-12-18T05:39:25;92447.97;;;-6.49;90.66
63493;BME280;49638;47.526;10.028;2022-12-18T05:42:25;92449.19;;;-6.32;90.64
63493;BME280;49638;47.526;10.028;2022-12-18T05:45:25;92442.16;;;-6.30;90.47
63493;BME280;49638;47.526;10.028;2022-12-18T05:48:25;92434.13;;;-6.37;89.93
63493;BME280;49638;47.526;10.028;2022-12-18T05:51:26;92449.50;;;-6.26;90.54
63493;BME280;49638;47.526;10.028;2022-12-18T05:54:27;92454.38;;;-6.23;90.80
63493;BME280;49638;47.526;10.028;2022-12-18T05:57:28;92460.78;;;-6.17;91.08
63493;BME280;49638;47.526;10.028;2022-12-18T06:00:28;92456.59;;;-6.18;89.69
63493;BME280;49638;47.526;10.028;2022-12-18T06:03:29;92454.63;;;-6.26;89.56
63493;BME280;49638;47.526;10.028;2022-12-18T06:06:29;92456.09;;;-6.33;88.52
63493;BME280;49638;47.526;10.028;2022-12-18T06:09:29;92457.34;;;-6.27;89.82
63493;BME280;49638;47.526;10.028;2022-12-18T06:12:29;92463.78;;;-6.33;88.84
63493;BME280;49638;47.526;10.028;2022-12-18T06:15:30;92468.75;;;-6.41;88.32
63493;BME280;49638;47.526;10.028;2022-12-18T06:18:31;92473.09;;;-6.41;88.80
63493;BME280;49638;47.526;10.028;2022-12-18T06:21:32;92478.41;;;-6.33;90.15
63493;BME280;49638;47.526;10.028;2022-12-18T06:24:33;92465.94;;;-6.38;89.01
63493;BME280;49638;47.526;10.028;2022-12-18T06:27:33;92472.25;;;-6.42;88.55
63493;BME280;49638;47.526;10.028;2022-12-18T06:30:34;92473.56;;;-6.48;87.31
63493;BME280;49638;47.526;10.028;2022-12-18T06:33:35;92476.31;;;-6.60;87.11
63493;BME280;49638;47.526;10.028;2022-12-18T06:36:35;92481.13;;;-6.67;87.79
63493;BME280;49638;47.526;10.028;2022-12-18T06:39:36;92482.88;;;-6.68;88.24
63493;BME280;49638;47.526;10.028;2022-12-18T06:42:36;92457.22;;;-6.79;90.16
63493;BME280;49638;47.526;10.028;2022-12-18T06:45:36;92469.91;;;-6.66;89.91
63493;BME280;49638;47.526;10.028;2022-12-18T06:48:37;92480.97;;;-6.54;89.74
63493;BME280;49638;47.526;10.028;2022-12-18T06:51:37;92480.72;;;-6.51;89.57
63493;BME280;49638;47.526;10.028;2022-12-18T06:54:38;92470.78;;;-6.56;89.85
63493;BME280;49638;47.526;10.028;2022-12-18T06:57:38;92465.53;;;-6.54;90.86
63493;BME280;49638;47.526;10.028;2022-12-18T07:00:38;92467.16;;;-6.53;90.21
63493;BME280;49638;47.526;10.028;2022-12-18T07:03:40;92467.22;;;-6.64;87.58
63493;BME280;49638;47.526;10.028;2022-12-18T07:06:40;92471.91;;;-6.70;88.63
63493;BME280;49638;47.526;10.028;2022-12-18T07:09:41;92477.03;;;-6.70;88.68
63493;BME280;49638;47.526;10.028;2022-12-18T07:12:41;92490.22;;;-6.63;88.18
63493;BME280;49638;47.526;10.028;2022-12-18T07:15:42;92492.50;;;-6.81;86.92
63493;BME280;49638;47.526;10.028;2022-12-18T07:18:43;92491.97;;;-6.96;87.52
63493;BME280;49638;47.526;10.028;2022-12-18T07:21:44;92497.09;;;-6.96;87.81
63493;BME280;49638;47.526;10.028;2022-12-18T07:24:44;92505.63;;;-6.95;88.35
63493;BME280;49638;47.526;10.028;2022-12-18T07:27:44;92515.88;;;-6.84;89.08
63493;BME280;49638;47.526;10.028;2022-12-18T07:30:44;92523.31;;;-6.70;90.20
63493;BME280;49638;47.526;10.028;2022-12-18T07:33:45;92533.34;;;-6.67;88.41
63493;BME280;49638;47.526;10.028;2022-12-18T07:36:46;92530.22;;;-6.70;88.19
63493;BME280;49638;47.526;10.028;2022-12-18T07:39:46;92532.53;;;-6.67;89.42
63493;BME280;49638;47.526;10.028;2022-12-18T07:42:46;92537.78;;;-6.57;89.61
63493;BME280;49638;47.526;10.028;2022-12-18T07:45:49;92538.34;;;-6.54;88.89
63493;BME280;49638;47.526;10.028;2022-12-18T07:48:50;92530.75;;;-6.55;89.52
63493;BME280;49638;47.526;10.028;2022-12-18T07:51:50;92537.06;;;-6.48;89.80
63493;BME280;49638;47.526;10.028;2022-12-18T07:54:50;92545.91;;;-6.41;88.33
63493;BME280;49638;47.526;10.028;2022-12-18T07:57:51;92546.72;;;-6.40;88.36
63493;BME280;49638;47.526;10.028;2022-12-18T08:00:51;92556.75;;;-6.37;88.78
63493;BME280;49638;47.526;10.028;2022-12-18T08:03:52;92550.28;;;-6.32;89.33
63493;BME280;49638;47.526;10.028;2022-12-18T08:06:52;92542.09;;;-6.26;89.36
63493;BME280;49638;47.526;10.028;2022-12-18T08:09:53;92545.38;;;-6.24;89.06
63493;BME280;49638;47.526;10.028;2022-12-18T08:12:53;92551.91;;;-6.20;89.02
63493;BME280;49638;47.526;10.028;2022-12-18T08:16:03;92552.78;;;-6.09;90.01
63493;BME280;49638;47.526;10.028;2022-12-18T08:19:03;92542.97;;;-6.04;89.96
63493;BME280;49638;47.526;10.028;2022-12-18T08:22:04;92550.41;;;-6.01;89.54
63493;BME280;49638;47.526;10.028;2022-12-18T08:25:04;92551.81;;;-5.97;88.46
63493;BME280;49638;47.526;10.028;2022-12-18T08:28:05;92531.72;;;-6.03;90.07
63493;BME280;49638;47.526;10.028;2022-12-18T08:31:06;92531.47;;;-6.00;91.75
63493;BME280;49638;47.526;10.028;2022-12-18T08:34:07;92546.44;;;-5.84;90.51
63493;BME280;49638;47.526;10.028;2022-12-18T08:37:08;92539.16;;;-5.79;90.16
63493;BME280;49638;47.526;10.028;2022-12-18T08:40:08;92539.03;;;-5.78;89.68
63493;BME280;49638;47.526;10.028;2022-12-18T08:43:10;92542.44;;;-5.77;89.30
63493;BME280;49638;47.526;10.028;2022-12-18T08:46:34;92539.47;;;-5.73;89.98
63493;BME280;49638;47.526;10.028;2022-12-18T08:49:35;92506.34;;;-5.87;90.25
63493;BME280;49638;47.526;10.028;2022-12-18T08:52:35;92525.47;;;-5.80;89.13
63493;BME280;49638;47.526;10.028;2022-12-18T08:55:35;92515.75;;;-5.76;89.03
63493;BME280;49638;47.526;10.028;2022-12-18T08:58:36;92534.75;;;-5.67;88.88
63493;BME280;49638;47.526;10.028;2022-12-18T09:01:36;92539.09;;;-5.68;88.85
63493;BME280;49638;47.526;10.028;2022-12-18T09:04:37;92537.22;;;-5.66;89.66
63493;BME280;49638;47.526;10.028;2022-12-18T09:07:37;92550.97;;;-5.56;89.36
63493;BME280;49638;47.526;10.028;2022-12-18T09:10:45;92543.97;;;-5.65;88.73
63493;BME280;49638;47.526;10.028;2022-12-18T09:13:45;92560.56;;;-5.58;88.90
63493;BME280;49638;47.526;10.028;2022-12-18T09:16:46;92546.81;;;-5.68;87.64
63493;BME280;49638;47.526;10.028;2022-12-18T09:19:46;92556.53;;;-5.72;87.05
63493;BME280;49638;47.526;10.028;2022-12-18T09:22:46;92562.63;;;-5.73;88.86
63493;BME280;49638;47.526;10.028;2022-12-18T09:25:47;92554.09;;;-5.73;89.70
63493;BME280;49638;47.526;10.028;2022-12-18T09:28:47;92571.56;;;-5.56;89.73
63493;BME280;49638;47.526;10.028;2022-12-18T09:31:48;92555.28;;;-5.56;89.75
63493;BME280;49638;47.526;10.028;2022-12-18T09:34:49;92567.69;;;-5.40;89.74
63493;BME280;49638;47.526;10.028;2022-12-18T09:37:49;92557.03;;;-5.36;89.91
63493;BME280;49638;47.526;10.028;2022-12-18T09:40:53;92555.88;;;-5.22;90.03
63493;BME280;49638;47.526;10.028;2022-12-18T09:44:01;92546.22;;;-5.20;89.22
63493;BME280;49638;47.526;10.028;2022-12-18T09:47:16;92552.38;;;-5.11;88.98
63493;BME280;49638;47.526;10.028;2022-12-18T09:50:23;92547.94;;;-5.09;89.65
63493;BME280;49638;47.526;10.028;2022-12-18T09:53:28;92526.19;;;-5.16;89.53
63493;BME280;49638;47.526;10.028;2022-12-18T09:56:35;92534.22;;;-5.10;89.00
63493;BME280;49638;47.526;10.028;2022-12-18T09:59:38;92521.31;;;-5.10;90.27
63493;BME280;49638;47.526;10.028;2022-12-18T10:02:39;92526.66;;;-5.02;89.84
63493;BME280;49638;47.526;10.028;2022-12-18T10:05:51;92546.91;;;-4.87;90.09
63493;BME280;49638;47.526;10.028;2022-12-18T10:12:23;92539.34;;;-4.69;90.25
63493;BME280;49638;47.526;10.028;2022-12-18T10:15:35;92533.13;;;-4.67;90.32
63493;BME280;49638;47.526;10.028;2022-12-18T10:22:10;92535.88;;;-4.39;89.65
63493;BME280;49638;47.526;10.028;2022-12-18T10:28:37;92538.06;;;-4.35;88.94
63493;BME280;49638;47.526;10.028;2022-12-18T10:31:38;92541.75;;;-4.28;88.54
63493;BME280;49638;47.526;10.028;2022-12-18T10:34:39;92525.56;;;-4.30;89.24
63493;BME280;49638;47.526;10.028;2022-12-18T10:38:02;92532.63;;;-4.22;88.81
63493;BME280;49638;47.526;10.028;2022-12-18T10:41:24;92537.94;;;-4.14;88.03
63493;BME280;49638;47.526;10.028;2022-12-18T10:44:25;92528.28;;;-4.21;89.03
63493;BME280;49638;47.526;10.028;2022-12-18T10:47:26;92528.16;;;-4.20;89.30
63493;BME280;49638;47.526;10.028;2022-12-18T10:53:28;92530.22;;;-4.04;90.01
63493;BME280;49638;47.526;10.028;2022-12-18T10:56:31;92533.19;;;-3.99;89.94
63493;BME280;49638;47.526;10.028;2022-12-18T10:59:50;92538.47;;;-3.91;89.47
63493;BME280;49638;47.526;10.028;2022-12-18T11:02:51;92522.72;;;-3.88;89.84
63493;BME280;49638;47.526;10.028;2022-12-18T11:06:02;92533.47;;;-3.83;89.21
63493;BME280;49638;47.526;10.028;2022-12-18T11:09:05;92528.56;;;-3.86;89.51
63493;BME280;49638;47.526;10.028;2022-12-18T11:15:42;92543.09;;;-3.65;89.19
63493;BME280;49638;47.526;10.028;2022-12-18T11:18:42;92539.16;;;-3.69;89.55
63493;BME280;49638;47.526;10.028;2022-12-18T11:21:43;92555.72;;;-3.52;89.82
63493;BME280;49638;47.526;10.028;2022-12-18T11:24:58;92546.03;;;-3.50;89.26
63493;BME280;49638;47.526;10.028;2022-12-18T11:28:01;92550.13;;;-3.48;89.22
63493;BME280;49638;47.526;10.028;2022-12-18T11:31:19;92558.66;;;-3.38;89.21
63493;BME280;49638;47.526;10.028;2022-12-18T11:34:28;92549.84;;;-3.35;88.88
63493;BME280;49638;47.526;10.028;2022-12-18T11:37:31;92532.81;;;-3.38;89.26
63493;BME280;49638;47.526;10.028;2022-12-18T11:40:36;92555.78;;;-3.25;88.86
63493;BME280;49638;47.526;10.028;2022-12-18T11:43:42;92546.69;;;-3.29;89.36
63493;BME280;49638;47.526;10.028;2022-12-18T11:46:51;92540.13;;;-3.23;89.49
63493;BME280;49638;47.526;10.028;2022-12-18T11:49:55;92542.63;;;-3.31;89.78
63493;BME280;49638;47.526;10.028;2022-12-18T11:52:57;92542.19;;;-3.27;89.55
63493;BME280;49638;47.526;10.028;2022-12-18T12:00:19;92525.38;;;-3.03;89.79
63493;BME280;49638;47.526;10.028;2022-12-18T12:13:18;92519.34;;;-2.94;89.20
63493;BME280;49638;47.526;10.028;2022-12-18T12:16:34;92523.16;;;-2.89;89.20
63493;BME280;49638;47.526;10.028;2022-12-18T12:19:45;92529.66;;;-2.84;90.32
63493;BME280;49638;47.526;10.028;2022-12-18T12:22:57;92526.78;;;-2.81;89.30
63493;BME280;49638;47.526;10.028;2022-12-18T12:30:04;92509.78;;;-2.84;88.20
63493;BME280;49638;47.526;10.028;2022-12-18T12:33:30;92500.41;;;-2.85;88.28
63493;BME280;49638;47.526;10.028;2022-12-18T12:37:12;92495.34;;;-2.87;88.67
63493;BME280;49638;47.526;10.028;2022-12-18T12:40:19;92485.72;;;-2.94;89.33
63493;BME280;49638;47.526;10.028;2022-12-18T12:43:28;92495.63;;;-2.90;89.00
63493;BME280;49638;47.526;10.028;2022-12-18T12:46:34;92485.16;;;-2.88;89.18
63493;BME280;49638;47.526;10.028;2022-12-18T12:49:37;92473.56;;;-2.84;89.79
63493;BME280;49638;47.526;10.028;2022-12-18T12:52:42;92471.88;;;-2.75;89.50
63493;BME280;49638;47.526;10.028;2022-12-18T12:55:44;92470.13;;;-2.75;90.06
63493;BME280;49638;47.526;10.028;2022-12-18T12:59:45;92472.63;;;-2.65;88.59
63493;BME280;49638;47.526;10.028;2022-12-18T13:02:47;92471.09;;;-2.58;88.08
63493;BME280;49638;47.526;10.028;2022-12-18T13:06:00;92467.69;;;-2.58;88.54
63493;BME280;49638;47.526;10.028;2022-12-18T13:09:03;92460.59;;;-2.56;89.25
63493;BME280;49638;47.526;10.028;2022-12-18T13:12:09;92464.91;;;-2.47;89.44
63493;BME280;49638;47.526;10.028;2022-12-18T13:15:33;92458.97;;;-2.40;89.46
63493;BME280;49638;47.526;10.028;2022-12-18T13:18:34;92455.06;;;-2.44;89.19
63493;BME280;49638;47.526;10.028;2022-12-18T13:21:35;92458.00;;;-2.39;89.02
63493;BME280;49638;47.526;10.028;2022-12-18T13:24:35;92460.59;;;-2.39;89.18
63493;BME280;49638;47.526;10.028;2022-12-18T13:30:56;92470.22;;;-2.31;88.56
63493;BME280;49638;47.526;10.028;2022-12-18T13:34:16;92447.28;;;-2.44;88.56
63493;BME280;49638;47.526;10.028;2022-12-18T13:43:41;92479.69;;;-2.22;89.09
63493;BME280;49638;47.526;10.028;2022-12-18T13:46:44;92480.28;;;-2.28;86.94
63493;BME280;49638;47.526;10.028;2022-12-18T13:49:46;92480.28;;;-2.28;89.06
63493;BME280;49638;47.526;10.028;2022-12-18T13:52:46;92478.94;;;-2.32;89.43
63493;BME280;49638;47.526;10.028;2022-12-18T13:55:47;92493.88;;;-2.26;89.30
63493;BME280;49638;47.526;10.028;2022-12-18T14:02:26;92504.88;;;-2.42;89.63
63493;BME280;49638;47.526;10.028;2022-12-18T14:08:33;92513.78;;;-2.26;90.16
63493;BME280;49638;47.526;10.028;2022-12-18T14:11:34;92501.06;;;-2.38;90.15
63493;BME280;49638;47.526;10.028;2022-12-18T14:14:35;92508.31;;;-2.41;90.48
63493;BME280;49638;47.526;10.028;2022-12-18T14:17:36;92509.69;;;-2.47;89.29
63493;BME280;49638;47.526;10.028;2022-12-18T14:20:36;92498.88;;;-2.60;89.51
63493;BME280;49638;47.526;10.028;2022-12-18T14:23:41;92497.28;;;-2.61;89.58
63493;BME280;49638;47.526;10.028;2022-12-18T14:26:42;92508.28;;;-2.59;89.80
63493;BME280;49638;47.526;10.028;2022-12-18T14:29:43;92520.56;;;-2.61;91.08
63493;BME280;49638;47.526;10.028;2022-12-18T14:32:44;92512.97;;;-2.72;91.27
63493;BME280;49638;47.526;10.028;2022-12-18T14:36:01;92514.13;;;-2.84;92.17
63493;BME280;49638;47.526;10.028;2022-12-18T14:39:01;92496.97;;;-2.86;91.91
63493;BME280;49638;47.526;10.028;2022-12-18T14:42:02;92516.38;;;-2.72;91.75
63493;BME280;49638;47.526;10.028;2022-12-18T14:45:36;92512.97;;;-2.72;90.95
63493;BME280;49638;47.526;10.028;2022-12-18T14:48:38;92511.63;;;-2.76;90.91
63493;BME280;49638;47.526;10.028;2022-12-18T14:51:49;92505.94;;;-2.80;91.13
63493;BME280;49638;47.526;10.028;2022-12-18T14:54:51;92509.22;;;-2.78;91.67
63493;BME280;49638;47.526;10.028;2022-12-18T14:57:53;92510.00;;;-2.77;91.76
63493;BME280;49638;47.526;10.028;2022-12-18T15:00:54;92511.41;;;-2.83;91.50
63493;BME280;49638;47.526;10.028;2022-12-18T15:03:56;92519.69;;;-2.79;91.59
63493;BME280;49638;47.526;10.028;2022-12-18T15:07:18;92503.03;;;-2.95;91.67
63493;BME280;49638;47.526;10.028;2022-12-18T15:10:21;92527.19;;;-2.86;91.43
63493;BME280;49638;47.526;10.028;2022-12-18T15:13:23;92526.94;;;-2.93;91.15
63493;BME280;49638;47.526;10.028;2022-12-18T15:16:24;92537.44;;;-2.94;91.61
63493;BME280;49638;47.526;10.028;2022-12-18T15:19:39;92523.50;;;-3.11;91.46
63493;BME280;49638;47.526;10.028;2022-12-18T15:22:41;92532.22;;;-3.12;91.04
63493;BME280;49638;47.526;10.028;2022-12-18T15:25:41;92537.94;;;-3.18;90.89
63493;BME280;49638;47.526;10.028;2022-12-18T15:32:18;92526.59;;;-3.45;92.26
63493;BME280;49638;47.526;10.028;2022-12-18T15:35:22;92537.09;;;-3.46;93.01
63493;BME280;49638;47.526;10.028;2022-12-18T15:38:22;92538.81;;;-3.47;93.69
63493;BME280;49638;47.526;10.028;2022-12-18T15:41:23;92539.25;;;-3.51;94.59
63493;BME280;49638;47.526;10.028;2022-12-18T15:44:24;92534.50;;;-3.56;94.79
63493;BME280;49638;47.526;10.028;2022-12-18T15:47:25;92543.06;;;-3.46;94.10
63493;BME280;49638;47.526;10.028;2022-12-18T15:50:25;92536.41;;;-3.68;90.68
63493;BME280;49638;47.526;10.028;2022-12-18T15:53:30;92537.66;;;-3.82;91.79
63493;BME280;49638;47.526;10.028;2022-12-18T15:56:32;92546.63;;;-3.76;92.35
63493;BME280;49638;47.526;10.028;2022-12-18T15:59:52;92529.91;;;-3.82;92.48
63493;BME280;49638;47.526;10.028;2022-12-18T16:02:53;92541.31;;;-3.84;90.34
63493;BME280;49638;47.526;10.028;2022-12-18T16:05:53;92547.31;;;-3.93;91.93
63493;BME280;49638;47.526;10.028;2022-12-18T16:08:54;92523.66;;;-4.08;92.28
63493;BME280;49638;47.526;10.028;2022-12-18T16:11:54;92551.38;;;-3.91;92.17
63493;BME280;49638;47.526;10.028;2022-12-18T16:14:54;92535.63;;;-3.97;91.55
63493;BME280;49638;47.526;10.028;2022-12-18T16:17:54;92525.28;;;-3.97;91.93
63493;BME280;49638;47.526;10.028;2022-12-18T16:20:55;92541.31;;;-3.84;92.51
63493;BME280;49638;47.526;10.028;2022-12-18T16:23:55;92536.03;;;-3.83;91.80
63493;BME280;49638;47.526;10.028;2022-12-18T16:26:58;92515.22;;;-3.91;92.56
63493;BME280;49638;47.526;10.028;2022-12-18T16:29:59;92543.34;;;-3.68;93.96
63493;BME280;49638;47.526;10.028;2022-12-18T16:32:59;92538.88;;;-3.66;92.77
63493;BME280;49638;47.526;10.028;2022-12-18T16:36:00;92534.38;;;-3.64;92.73
63493;BME280;49638;47.526;10.028;2022-12-18T16:39:00;92515.75;;;-3.68;93.69
63493;BME280;49638;47.526;10.028;2022-12-18T16:42:02;92533.56;;;-3.55;93.23
63493;BME280;49638;47.526;10.028;2022-12-18T16:45:05;92515.06;;;-3.60;91.83
63493;BME280;49638;47.526;10.028;2022-12-18T16:48:06;92528.53;;;-3.66;90.90
63493;BME280;49638;47.526;10.028;2022-12-18T16:51:07;92507.47;;;-3.81;91.67
63493;BME280;49638;47.526;10.028;2022-12-18T16:54:07;92521.47;;;-3.64;92.50
63493;BME280;49638;47.526;10.028;2022-12-18T16:57:09;92515.06;;;-3.60;92.85
63493;BME280;49638;47.526;10.028;2022-12-18T17:00:12;92509.22;;;-3.62;92.36
63493;BME280;49638;47.526;10.028;2022-12-18T17:03:12;92517.50;;;-3.49;92.47
63493;BME280;49638;47.526;10.028;2022-12-18T17:06:13;92517.34;;;-3.47;92.19
63493;BME280;49638;47.526;10.028;2022-12-18T17:09:14;92509.88;;;-3.50;91.96